sensor_id;sensor_type;location;lat;lon;timestamp;pressure;altitude;pressure_sealevel;temperature;humidity
53719;BME280;39616;48.872;9.390;2023-06-22T00:00:17;98360.72;;;20.18;100.00
53719;BME280;39616;48.872;9.390;2023-06-22T00:02:48;98349.97;;;20.13;100.00
53719;BME280;39616;48.872;9.390;2023-06-22T00:05:18;98346.34;;;20.09;100.00
53719;BME280;39616;48.872;9.390;2023-06-22T00:07:48;98344.22;;;20.02;100.00
53719;BME280;39616;48.872;9.390;2023-06-22T00:10:19;98330.84;;;20.00;100.00
53719;BME280;39616;48.872;9.390;2023-06-22T00:12:49;98336.97;;;19.94;100.00
53719;BME280;39616;48.872;9.390;2023-06-22T00:15:19;98334.50;;;19.89;100.00
53719;BME280;39616;48.872;9.390;2023-06-22T00:17:50;98340.25;;;19.84;100.00
53719;BME280;39616;48.872;9.390;2023-06-22T00:20:21;98338.88;;;19.74;100.00
53719;BME280;39616;48.872;9.390;2023-06-22T00:22:53;98335.59;;;19.68;100.00
53719;BME280;39616;48.872;9.390;2023-06-22T00:25:23;98337.44;;;19.64;100.00
53719;BME280;39616;48.872;9.390;2023-06-22T00:27:54;98342.03;;;19.60;100.00
53719;BME280;39616;48.872;9.390;2023-06-22T00:30:24;98327.75;;;19.54;100.00
53719;BME280;39616;48.872;9.390;2023-06-22T00:32:54;98325.38;;;19.53;100.00
53719;BME280;39616;48.872;9.390;2023-06-22T00:35:26;98336.28;;;19.49;100.00
53719;BME280;39616;48.872;9.390;2023-06-22T00:38:00;98325.19;;;19.46;100.00
53719;BME280;39616;48.872;9.390;2023-06-22T00:40:31;98331.47;;;19.46;100.00
53719;BME280;39616;48.872;9.390;2023-06-22T00:43:03;98331.94;;;19.48;100.00
53719;BME280;39616;48.872;9.390;2023-06-22T00:45:33;98319.69;;;19.30;100.00
53719;BME280;39616;48.872;9.390;2023-06-22T00:48:04;98326.97;;;19.22;100.00
53719;BME280;39616;48.872;9.390;2023-06-22T00:50:35;98325.97;;;19.15;100.00
53719;BME280;39616;48.872;9.390;2023-06-22T00:53:07;98316.38;;;19.09;100.00
53719;BME280;39616;48.872;9.390;2023-06-22T00:55:41;98326.59;;;19.08;100.00
53719;BME280;39616;48.872;9.390;2023-06-22T00:58:21;98335.44;;;19.01;100.00
53719;BME280;39616;48.872;9.390;2023-06-22T01:00:51;98317.44;;;19.04;100.00
53719;BME280;39616;48.872;9.390;2023-06-22T01:03:22;98326.03;;;19.02;100.00
53719;BME280;39616;48.872;9.390;2023-06-22T01:05:56;98349.69;;;19.07;100.00
53719;BME280;39616;48.872;9.390;2023-06-22T01:08:56;98364.88;;;19.17;100.00
53719;BME280;39616;48.872;9.390;2023-06-22T01:11:29;98368.09;;;19.35;100.00
53719;BME280;39616;48.872;9.390;2023-06-22T01:14:06;98387.25;;;19.31;100.00
53719;BME280;39616;48.872;9.390;2023-06-22T01:16:41;98405.94;;;19.25;100.00
53719;BME280;39616;48.872;9.390;2023-06-22T01:21:49;98406.66;;;19.22;100.00
53719;BME280;39616;48.872;9.390;2023-06-22T01:24:30;98411.22;;;19.30;100.00
53719;BME280;39616;48.872;9.390;2023-06-22T01:27:26;98416.09;;;19.37;100.00
53719;BME280;39616;48.872;9.390;2023-06-22T01:29:59;98407.13;;;19.40;100.00
53719;BME280;39616;48.872;9.390;2023-06-22T01:32:32;98385.13;;;19.40;100.00
53719;BME280;39616;48.872;9.390;2023-06-22T01:35:06;98374.66;;;19.30;100.00
53719;BME280;39616;48.872;9.390;2023-06-22T01:37:37;98380.41;;;19.25;100.00
53719;BME280;39616;48.872;9.390;2023-06-22T01:40:08;98384.69;;;19.22;100.00
53719;BME280;39616;48.872;9.390;2023-06-22T01:42:39;98393.88;;;19.14;100.00
53719;BME280;39616;48.872;9.390;2023-06-22T01:45:11;98385.53;;;19.11;100.00
53719;BME280;39616;48.872;9.390;2023-06-22T01:47:42;98385.41;;;19.07;100.00
53719;BME280;39616;48.872;9.390;2023-06-22T01:50:13;98387.03;;;19.08;100.00
53719;BME280;39616;48.872;9.390;2023-06-22T01:52:43;98386.59;;;19.06;100.00
53719;BME280;39616;48.872;9.390;2023-06-22T01:55:13;98373.44;;;18.99;100.00
53719;BME280;39616;48.872;9.390;2023-06-22T01:57:44;98372.53;;;18.95;100.00
53719;BME280;39616;48.872;9.390;2023-06-22T02:00:18;98363.88;;;18.93;100.00
53719;BME280;39616;48.872;9.390;2023-06-22T02:03:10;98368.28;;;18.82;100.00
53719;BME280;39616;48.872;9.390;2023-06-22T02:05:47;98379.94;;;18.79;100.00
53719;BME280;39616;48.872;9.390;2023-06-22T02:08:22;98388.41;;;18.74;100.00
53719;BME280;39616;48.872;9.390;2023-06-22T02:10:55;98375.63;;;18.78;100.00
53719;BME280;39616;48.872;9.390;2023-06-22T02:13:27;98380.19;;;18.74;100.00
53719;BME280;39616;48.872;9.390;2023-06-22T02:15:57;98389.34;;;18.66;100.00
53719;BME280;39616;48.872;9.390;2023-06-22T02:18:28;98388.09;;;18.63;100.00
53719;BME280;39616;48.872;9.390;2023-06-22T02:20:58;98379.94;;;18.67;100.00
53719;BME280;39616;48.872;9.390;2023-06-22T02:23:29;98374.91;;;18.69;100.00
53719;BME280;39616;48.872;9.390;2023-06-22T02:25:59;98382.94;;;18.62;100.00
53719;BME280;39616;48.872;9.390;2023-06-22T02:28:30;98374.16;;;18.56;100.00
53719;BME280;39616;48.872;9.390;2023-06-22T02:31:00;98375.06;;;18.48;100.00
53719;BME280;39616;48.872;9.390;2023-06-22T02:33:30;98368.69;;;18.44;100.00
53719;BME280;39616;48.872;9.390;2023-06-22T02:36:01;98363.88;;;18.41;100.00
53719;BME280;39616;48.872;9.390;2023-06-22T02:38:35;98369.63;;;18.35;100.00
53719;BME280;39616;48.872;9.390;2023-06-22T02:41:06;98357.28;;;18.29;100.00
53719;BME280;39616;48.872;9.390;2023-06-22T02:43:36;98359.13;;;18.25;100.00
53719;BME280;39616;48.872;9.390;2023-06-22T02:46:07;98352.63;;;18.18;100.00
53719;BME280;39616;48.872;9.390;2023-06-22T02:48:37;98354.47;;;18.14;100.00
53719;BME280;39616;48.872;9.390;2023-06-22T02:51:08;98354.03;;;18.12;100.00
53719;BME280;39616;48.872;9.390;2023-06-22T02:53:38;98352.88;;;18.13;100.00
53719;BME280;39616;48.872;9.390;2023-06-22T02:56:08;98356.53;;;18.04;100.00
53719;BME280;39616;48.872;9.390;2023-06-22T02:58:38;98347.72;;;17.99;100.00
53719;BME280;39616;48.872;9.390;2023-06-22T03:01:09;98343.03;;;17.99;100.00
53719;BME280;39616;48.872;9.390;2023-06-22T03:03:40;98342.94;;;17.96;100.00
53719;BME280;39616;48.872;9.390;2023-06-22T03:06:10;98350.59;;;17.90;100.00
53719;BME280;39616;48.872;9.390;2023-06-22T03:08:44;98346.59;;;17.88;100.00
53719;BME280;39616;48.872;9.390;2023-06-22T03:11:14;98339.63;;;17.90;100.00
53719;BME280;39616;48.872;9.390;2023-06-22T03:13:44;98345.00;;;17.86;100.00
53719;BME280;39616;48.872;9.390;2023-06-22T03:16:16;98336.22;;;17.93;100.00
53719;BME280;39616;48.872;9.390;2023-06-22T03:18:46;98330.03;;;17.84;100.00
53719;BME280;39616;48.872;9.390;2023-06-22T03:21:17;98330.38;;;17.82;100.00
53719;BME280;39616;48.872;9.390;2023-06-22T03:23:47;98329.91;;;17.80;100.00
53719;BME280;39616;48.872;9.390;2023-06-22T03:26:18;98318.38;;;17.75;100.00
53719;BME280;39616;48.872;9.390;2023-06-22T03:28:48;98318.25;;;17.71;100.00
53719;BME280;39616;48.872;9.390;2023-06-22T03:31:18;98330.22;;;17.67;100.00
53719;BME280;39616;48.872;9.390;2023-06-22T03:33:51;98326.56;;;17.62;100.00
53719;BME280;39616;48.872;9.390;2023-06-22T03:36:21;98334.69;;;17.59;100.00
53719;BME280;39616;48.872;9.390;2023-06-22T03:38:55;98326.34;;;17.55;100.00
53719;BME280;39616;48.872;9.390;2023-06-22T03:41:25;98327.13;;;17.56;100.00
53719;BME280;39616;48.872;9.390;2023-06-22T03:43:55;98331.50;;;17.57;100.00
53719;BME280;39616;48.872;9.390;2023-06-22T03:46:25;98332.72;;;17.59;100.00
53719;BME280;39616;48.872;9.390;2023-06-22T03:48:56;98333.22;;;17.61;100.00
53719;BME280;39616;48.872;9.390;2023-06-22T03:51:26;98333.66;;;17.63;100.00
53719;BME280;39616;48.872;9.390;2023-06-22T03:53:56;98336.19;;;17.69;100.00
53719;BME280;39616;48.872;9.390;2023-06-22T03:56:27;98334.81;;;17.75;100.00
53719;BME280;39616;48.872;9.390;2023-06-22T03:58:57;98337.00;;;17.81;100.00
53719;BME280;39616;48.872;9.390;2023-06-22T04:01:28;98332.31;;;17.82;100.00
53719;BME280;39616;48.872;9.390;2023-06-22T04:03:58;98326.72;;;17.91;100.00
53719;BME280;39616;48.872;9.390;2023-06-22T04:06:28;98326.16;;;17.97;100.00
53719;BME280;39616;48.872;9.390;2023-06-22T04:08:58;98322.47;;;18.05;100.00
53719;BME280;39616;48.872;9.390;2023-06-22T04:11:30;98327.69;;;18.10;100.00
53719;BME280;39616;48.872;9.390;2023-06-22T04:14:01;98319.25;;;18.16;100.00
53719;BME280;39616;48.872;9.390;2023-06-22T04:16:31;98323.81;;;18.24;100.00
53719;BME280;39616;48.872;9.390;2023-06-22T04:19:01;98320.91;;;18.32;100.00
53719;BME280;39616;48.872;9.390;2023-06-22T04:21:32;98317.56;;;18.39;100.00
53719;BME280;39616;48.872;9.390;2023-06-22T04:24:02;98315.84;;;18.47;100.00
53719;BME280;39616;48.872;9.390;2023-06-22T04:26:32;98299.94;;;18.52;100.00
53719;BME280;39616;48.872;9.390;2023-06-22T04:29:07;98301.44;;;18.66;100.00
53719;BME280;39616;48.872;9.390;2023-06-22T04:31:38;98301.25;;;18.71;100.00
53719;BME280;39616;48.872;9.390;2023-06-22T04:34:09;98290.28;;;18.87;100.00
53719;BME280;39616;48.872;9.390;2023-06-22T04:36:40;98293.41;;;19.01;100.00
53719;BME280;39616;48.872;9.390;2023-06-22T04:39:11;98288.53;;;19.10;100.00
53719;BME280;39616;48.872;9.390;2023-06-22T04:41:41;98284.03;;;19.18;100.00
53719;BME280;39616;48.872;9.390;2023-06-22T04:44:12;98282.88;;;19.35;100.00
53719;BME280;39616;48.872;9.390;2023-06-22T04:46:43;98287.13;;;19.32;100.00
53719;BME280;39616;48.872;9.390;2023-06-22T04:49:13;98295.91;;;19.53;100.00
53719;BME280;39616;48.872;9.390;2023-06-22T04:51:43;98293.81;;;19.63;100.00
53719;BME280;39616;48.872;9.390;2023-06-22T04:54:13;98289.69;;;19.72;100.00
53719;BME280;39616;48.872;9.390;2023-06-22T04:56:44;98291.81;;;19.79;100.00
53719;BME280;39616;48.872;9.390;2023-06-22T04:59:16;98290.09;;;19.90;100.00
53719;BME280;39616;48.872;9.390;2023-06-22T05:01:49;98275.00;;;20.00;100.00
53719;BME280;39616;48.872;9.390;2023-06-22T05:04:22;98269.56;;;20.03;100.00
53719;BME280;39616;48.872;9.390;2023-06-22T05:06:56;98260.38;;;20.15;100.00
53719;BME280;39616;48.872;9.390;2023-06-22T05:09:26;98278.34;;;20.28;100.00
53719;BME280;39616;48.872;9.390;2023-06-22T05:11:57;98270.75;;;20.41;100.00
53719;BME280;39616;48.872;9.390;2023-06-22T05:14:28;98269.09;;;20.56;100.00
53719;BME280;39616;48.872;9.390;2023-06-22T05:16:58;98268.06;;;20.64;100.00
53719;BME280;39616;48.872;9.390;2023-06-22T05:19:29;98266.13;;;20.65;100.00
53719;BME280;39616;48.872;9.390;2023-06-22T05:22:03;98265.97;;;20.77;100.00
53719;BME280;39616;48.872;9.390;2023-06-22T05:24:34;98266.59;;;20.90;100.00
53719;BME280;39616;48.872;9.390;2023-06-22T05:27:04;98263.78;;;21.09;98.50
53719;BME280;39616;48.872;9.390;2023-06-22T05:29:36;98255.69;;;21.20;96.60
53719;BME280;39616;48.872;9.390;2023-06-22T05:32:07;98257.91;;;21.34;94.35
53719;BME280;39616;48.872;9.390;2023-06-22T05:34:37;98248.97;;;21.40;94.34
53719;BME280;39616;48.872;9.390;2023-06-22T05:37:08;98259.31;;;21.47;92.50
53719;BME280;39616;48.872;9.390;2023-06-22T05:39:39;98256.25;;;21.52;92.05
53719;BME280;39616;48.872;9.390;2023-06-22T05:42:09;98245.59;;;21.51;92.45
53719;BME280;39616;48.872;9.390;2023-06-22T05:44:40;98248.47;;;21.58;91.17
53719;BME280;39616;48.872;9.390;2023-06-22T05:47:10;98234.50;;;21.74;91.26
53719;BME280;39616;48.872;9.390;2023-06-22T05:49:41;98237.06;;;21.89;88.77
53719;BME280;39616;48.872;9.390;2023-06-22T05:52:11;98249.94;;;22.08;87.94
53719;BME280;39616;48.872;9.390;2023-06-22T05:54:41;98243.88;;;22.26;86.32
53719;BME280;39616;48.872;9.390;2023-06-22T05:57:13;98245.59;;;22.37;85.48
53719;BME280;39616;48.872;9.390;2023-06-22T05:59:43;98260.09;;;22.61;84.38
53719;BME280;39616;48.872;9.390;2023-06-22T06:02:13;98249.88;;;22.65;82.36
53719;BME280;39616;48.872;9.390;2023-06-22T06:07:14;98237.41;;;22.82;80.89
53719;BME280;39616;48.872;9.390;2023-06-22T06:09:47;98234.44;;;22.98;81.34
53719;BME280;39616;48.872;9.390;2023-06-22T06:12:18;98237.34;;;23.15;78.96
53719;BME280;39616;48.872;9.390;2023-06-22T06:14:48;98244.50;;;23.20;78.46
53719;BME280;39616;48.872;9.390;2023-06-22T06:17:18;98243.72;;;23.23;78.46
53719;BME280;39616;48.872;9.390;2023-06-22T06:19:48;98247.31;;;23.24;78.02
53719;BME280;39616;48.872;9.390;2023-06-22T06:22:19;98227.88;;;23.17;78.23
53719;BME280;39616;48.872;9.390;2023-06-22T06:24:51;98238.75;;;22.95;79.13
53719;BME280;39616;48.872;9.390;2023-06-22T06:27:21;98232.88;;;23.00;78.31
53719;BME280;39616;48.872;9.390;2023-06-22T06:29:51;98234.00;;;22.96;78.75
53719;BME280;39616;48.872;9.390;2023-06-22T06:32:21;98234.53;;;23.12;78.66
53719;BME280;39616;48.872;9.390;2023-06-22T06:34:52;98235.41;;;23.16;78.28
53719;BME280;39616;48.872;9.390;2023-06-22T06:37:22;98239.38;;;23.22;77.24
53719;BME280;39616;48.872;9.390;2023-06-22T06:39:52;98232.41;;;23.39;77.24
53719;BME280;39616;48.872;9.390;2023-06-22T06:42:23;98229.00;;;23.63;76.10
53719;BME280;39616;48.872;9.390;2023-06-22T06:44:54;98239.81;;;23.76;75.18
53719;BME280;39616;48.872;9.390;2023-06-22T06:47:25;98239.53;;;23.99;73.85
53719;BME280;39616;48.872;9.390;2023-06-22T06:49:55;98233.31;;;24.20;72.83
53719;BME280;39616;48.872;9.390;2023-06-22T06:52:26;98239.41;;;24.57;72.07
53719;BME280;39616;48.872;9.390;2023-06-22T06:54:56;98251.75;;;24.74;70.18
53719;BME280;39616;48.872;9.390;2023-06-22T06:57:27;98240.28;;;24.87;70.23
53719;BME280;39616;48.872;9.390;2023-06-22T06:59:58;98241.09;;;24.98;70.12
53719;BME280;39616;48.872;9.390;2023-06-22T07:02:29;98242.69;;;25.10;68.90
53719;BME280;39616;48.872;9.390;2023-06-22T07:04:59;98247.88;;;25.43;67.51
53719;BME280;39616;48.872;9.390;2023-06-22T07:07:30;98241.53;;;25.46;67.17
53719;BME280;39616;48.872;9.390;2023-06-22T07:10:00;98247.88;;;25.54;66.25
53719;BME280;39616;48.872;9.390;2023-06-22T07:12:31;98234.78;;;25.51;66.80
53719;BME280;39616;48.872;9.390;2023-06-22T07:15:06;98231.97;;;25.76;65.59
53719;BME280;39616;48.872;9.390;2023-06-22T07:17:40;98240.97;;;26.26;64.31
53719;BME280;39616;48.872;9.390;2023-06-22T07:20:11;98238.16;;;26.37;63.03
53719;BME280;39616;48.872;9.390;2023-06-22T07:22:43;98227.44;;;26.29;63.71
53719;BME280;39616;48.872;9.390;2023-06-22T07:25:14;98226.25;;;26.37;63.02
53719;BME280;39616;48.872;9.390;2023-06-22T07:28:05;98221.66;;;26.79;62.11
53719;BME280;39616;48.872;9.390;2023-06-22T07:30:36;98216.00;;;26.96;60.95
53719;BME280;39616;48.872;9.390;2023-06-22T07:33:06;98195.63;;;27.14;60.12
53719;BME280;39616;48.872;9.390;2023-06-22T07:35:38;98205.75;;;27.35;58.57
53719;BME280;39616;48.872;9.390;2023-06-22T07:38:08;98193.34;;;27.43;58.60
53719;BME280;39616;48.872;9.390;2023-06-22T07:40:39;98192.41;;;27.60;58.16
53719;BME280;39616;48.872;9.390;2023-06-22T07:43:09;98182.78;;;27.65;57.51
53719;BME280;39616;48.872;9.390;2023-06-22T07:45:39;98185.91;;;28.08;56.14
53719;BME280;39616;48.872;9.390;2023-06-22T07:48:12;98173.41;;;28.20;56.29
53719;BME280;39616;48.872;9.390;2023-06-22T07:50:42;98168.75;;;28.44;55.61
53719;BME280;39616;48.872;9.390;2023-06-22T07:53:12;98166.47;;;28.66;54.85
53719;BME280;39616;48.872;9.390;2023-06-22T07:55:42;98167.00;;;28.57;54.73
53719;BME280;39616;48.872;9.390;2023-06-22T07:58:13;98158.16;;;28.86;54.57
53719;BME280;39616;48.872;9.390;2023-06-22T08:00:43;98165.09;;;28.78;53.56
53719;BME280;39616;48.872;9.390;2023-06-22T08:03:14;98165.72;;;29.12;53.76
53719;BME280;39616;48.872;9.390;2023-06-22T08:05:44;98164.72;;;29.03;52.94
53719;BME280;39616;48.872;9.390;2023-06-22T08:08:14;98145.88;;;29.54;52.69
53719;BME280;39616;48.872;9.390;2023-06-22T08:10:45;98141.41;;;29.36;52.52
53719;BME280;39616;48.872;9.390;2023-06-22T08:13:15;98129.41;;;29.59;50.98
53719;BME280;39616;48.872;9.390;2023-06-22T08:15:45;98150.03;;;29.22;51.39
53719;BME280;39616;48.872;9.390;2023-06-22T08:18:16;98149.97;;;29.02;52.08
53719;BME280;39616;48.872;9.390;2023-06-22T08:20:46;98153.84;;;29.08;51.53
53719;BME280;39616;48.872;9.390;2023-06-22T08:23:17;98153.84;;;29.32;51.32
53719;BME280;39616;48.872;9.390;2023-06-22T08:25:47;98159.31;;;29.63;50.20
53719;BME280;39616;48.872;9.390;2023-06-22T08:28:18;98171.50;;;30.12;50.90
53719;BME280;39616;48.872;9.390;2023-06-22T08:30:48;98183.69;;;30.22;48.97
53719;BME280;39616;48.872;9.390;2023-06-22T08:33:18;98188.50;;;30.21;48.53
53719;BME280;39616;48.872;9.390;2023-06-22T08:35:49;98188.53;;;30.58;48.48
53719;BME280;39616;48.872;9.390;2023-06-22T08:38:20;98181.69;;;30.59;47.64
53719;BME280;39616;48.872;9.390;2023-06-22T08:40:50;98189.00;;;30.36;47.89
53719;BME280;39616;48.872;9.390;2023-06-22T08:43:20;98187.66;;;30.61;47.40
53719;BME280;39616;48.872;9.390;2023-06-22T08:45:51;98195.88;;;30.31;49.32
53719;BME280;39616;48.872;9.390;2023-06-22T08:48:21;98208.59;;;30.52;47.35
53719;BME280;39616;48.872;9.390;2023-06-22T08:50:51;98205.31;;;30.58;47.17
53719;BME280;39616;48.872;9.390;2023-06-22T08:53:22;98199.88;;;31.03;46.75
53719;BME280;39616;48.872;9.390;2023-06-22T08:55:52;98206.25;;;31.03;46.00
53719;BME280;39616;48.872;9.390;2023-06-22T08:58:22;98203.13;;;31.50;46.11
53719;BME280;39616;48.872;9.390;2023-06-22T09:00:54;98196.00;;;31.79;46.37
53719;BME280;39616;48.872;9.390;2023-06-22T09:03:24;98182.28;;;31.81;46.22
53719;BME280;39616;48.872;9.390;2023-06-22T09:05:56;98190.06;;;31.60;45.92
53719;BME280;39616;48.872;9.390;2023-06-22T09:08:26;98173.56;;;31.00;46.92
53719;BME280;39616;48.872;9.390;2023-06-22T09:10:57;98163.50;;;30.67;47.71
53719;BME280;39616;48.872;9.390;2023-06-22T09:13:30;98165.34;;;30.93;47.88
53719;BME280;39616;48.872;9.390;2023-06-22T09:16:00;98167.19;;;31.62;46.04
53719;BME280;39616;48.872;9.390;2023-06-22T09:18:31;98170.09;;;31.58;45.91
53719;BME280;39616;48.872;9.390;2023-06-22T09:21:01;98177.41;;;31.23;46.66
53719;BME280;39616;48.872;9.390;2023-06-22T09:23:32;98177.84;;;31.05;46.46
53719;BME280;39616;48.872;9.390;2023-06-22T09:26:02;98182.59;;;30.72;47.90
53719;BME280;39616;48.872;9.390;2023-06-22T09:28:34;98175.03;;;30.52;49.04
53719;BME280;39616;48.872;9.390;2023-06-22T09:31:04;98181.78;;;30.75;47.70
53719;BME280;39616;48.872;9.390;2023-06-22T09:33:35;98184.41;;;30.82;47.88
53719;BME280;39616;48.872;9.390;2023-06-22T09:36:06;98190.00;;;31.15;47.14
53719;BME280;39616;48.872;9.390;2023-06-22T09:38:40;98190.16;;;30.75;48.37
53719;BME280;39616;48.872;9.390;2023-06-22T09:41:10;98176.34;;;31.17;48.04
53719;BME280;39616;48.872;9.390;2023-06-22T09:43:40;98154.47;;;32.03;46.52
53719;BME280;39616;48.872;9.390;2023-06-22T09:46:10;98144.63;;;32.11;45.79
53719;BME280;39616;48.872;9.390;2023-06-22T09:48:41;98146.53;;;32.14;45.72
53719;BME280;39616;48.872;9.390;2023-06-22T09:51:11;98163.94;;;31.34;47.46
53719;BME280;39616;48.872;9.390;2023-06-22T09:53:41;98158.22;;;31.83;46.02
53719;BME280;39616;48.872;9.390;2023-06-22T09:56:12;98152.13;;;31.72;45.99
53719;BME280;39616;48.872;9.390;2023-06-22T09:58:45;98142.91;;;32.42;46.72
53719;BME280;39616;48.872;9.390;2023-06-22T10:01:16;98135.88;;;33.36;45.48
53719;BME280;39616;48.872;9.390;2023-06-22T10:03:47;98149.50;;;33.12;43.78
53719;BME280;39616;48.872;9.390;2023-06-22T10:06:17;98137.97;;;32.85;44.45
53719;BME280;39616;48.872;9.390;2023-06-22T10:08:47;98136.56;;;32.26;45.37
53719;BME280;39616;48.872;9.390;2023-06-22T10:11:18;98128.22;;;31.96;45.99
53719;BME280;39616;48.872;9.390;2023-06-22T10:13:49;98121.72;;;31.99;45.68
53719;BME280;39616;48.872;9.390;2023-06-22T10:16:19;98118.16;;;32.12;45.12
53719;BME280;39616;48.872;9.390;2023-06-22T10:18:49;98117.56;;;32.59;44.25
53719;BME280;39616;48.872;9.390;2023-06-22T10:21:20;98107.50;;;32.19;45.13
53719;BME280;39616;48.872;9.390;2023-06-22T10:23:50;98102.75;;;31.91;46.69
53719;BME280;39616;48.872;9.390;2023-06-22T10:26:20;98112.78;;;32.17;46.31
53719;BME280;39616;48.872;9.390;2023-06-22T10:28:51;98114.34;;;31.47;45.75
53719;BME280;39616;48.872;9.390;2023-06-22T10:31:21;98103.31;;;31.86;46.13
53719;BME280;39616;48.872;9.390;2023-06-22T10:33:52;98099.28;;;31.99;44.93
53719;BME280;39616;48.872;9.390;2023-06-22T10:36:23;98078.56;;;32.22;44.74
53719;BME280;39616;48.872;9.390;2023-06-22T10:38:55;98069.94;;;32.30;44.73
53719;BME280;39616;48.872;9.390;2023-06-22T10:41:26;98079.38;;;32.61;43.65
53719;BME280;39616;48.872;9.390;2023-06-22T10:43:59;98077.00;;;32.72;44.21
53719;BME280;39616;48.872;9.390;2023-06-22T10:46:29;98083.50;;;32.69;43.45
53719;BME280;39616;48.872;9.390;2023-06-22T10:48:59;98079.03;;;32.59;43.82
53719;BME280;39616;48.872;9.390;2023-06-22T10:51:30;98067.59;;;32.66;43.79
53719;BME280;39616;48.872;9.390;2023-06-22T10:54:01;98062.34;;;32.90;44.42
53719;BME280;39616;48.872;9.390;2023-06-22T10:56:31;98057.19;;;33.02;43.18
53719;BME280;39616;48.872;9.390;2023-06-22T10:59:03;98058.66;;;32.93;44.14
53719;BME280;39616;48.872;9.390;2023-06-22T11:01:34;98055.63;;;32.88;43.38
53719;BME280;39616;48.872;9.390;2023-06-22T11:04:04;98051.56;;;33.02;45.46
53719;BME280;39616;48.872;9.390;2023-06-22T11:06:34;98057.44;;;32.82;43.63
53719;BME280;39616;48.872;9.390;2023-06-22T11:09:05;98056.47;;;32.63;43.62
53719;BME280;39616;48.872;9.390;2023-06-22T11:11:35;98051.66;;;32.38;43.55
53719;BME280;39616;48.872;9.390;2023-06-22T11:14:05;98040.66;;;32.31;43.40
53719;BME280;39616;48.872;9.390;2023-06-22T11:16:36;98041.19;;;32.26;42.85
53719;BME280;39616;48.872;9.390;2023-06-22T11:19:06;98044.00;;;32.51;43.10
53719;BME280;39616;48.872;9.390;2023-06-22T11:21:36;98048.41;;;32.52;44.11
53719;BME280;39616;48.872;9.390;2023-06-22T11:24:07;98039.28;;;32.61;43.17
53719;BME280;39616;48.872;9.390;2023-06-22T11:26:40;98038.72;;;32.66;43.37
53719;BME280;39616;48.872;9.390;2023-06-22T11:29:10;98041.28;;;32.73;42.71
53719;BME280;39616;48.872;9.390;2023-06-22T11:31:41;98049.38;;;32.58;43.13
53719;BME280;39616;48.872;9.390;2023-06-22T11:34:12;98048.50;;;32.36;43.10
53719;BME280;39616;48.872;9.390;2023-06-22T11:36:43;98041.91;;;32.42;42.53
53719;BME280;39616;48.872;9.390;2023-06-22T11:39:14;98041.41;;;32.69;42.42
53719;BME280;39616;48.872;9.390;2023-06-22T11:41:45;98036.88;;;32.98;42.58
53719;BME280;39616;48.872;9.390;2023-06-22T11:44:15;98033.34;;;33.06;43.38
53719;BME280;39616;48.872;9.390;2023-06-22T11:46:45;98030.16;;;32.82;41.19
53719;BME280;39616;48.872;9.390;2023-06-22T11:49:16;98038.66;;;32.91;41.92
53719;BME280;39616;48.872;9.390;2023-06-22T11:51:46;98030.53;;;33.06;43.26
53719;BME280;39616;48.872;9.390;2023-06-22T11:54:16;98029.75;;;33.06;44.17
53719;BME280;39616;48.872;9.390;2023-06-22T11:56:46;98017.00;;;33.27;41.26
53719;BME280;39616;48.872;9.390;2023-06-22T11:59:17;98015.31;;;33.29;41.20
53719;BME280;39616;48.872;9.390;2023-06-22T12:01:47;98017.50;;;33.12;42.96
53719;BME280;39616;48.872;9.390;2023-06-22T12:04:18;98019.44;;;33.03;46.11
53719;BME280;39616;48.872;9.390;2023-06-22T12:06:49;98025.53;;;33.01;43.11
53719;BME280;39616;48.872;9.390;2023-06-22T12:09:19;98029.63;;;32.75;42.69
53719;BME280;39616;48.872;9.390;2023-06-22T12:11:49;98022.81;;;32.63;44.79
53719;BME280;39616;48.872;9.390;2023-06-22T12:14:19;98027.28;;;32.60;45.15
53719;BME280;39616;48.872;9.390;2023-06-22T12:16:50;98035.00;;;32.69;45.02
53719;BME280;39616;48.872;9.390;2023-06-22T12:19:23;98039.81;;;32.81;45.21
53719;BME280;39616;48.872;9.390;2023-06-22T12:21:53;98034.47;;;32.61;45.29
53719;BME280;39616;48.872;9.390;2023-06-22T12:24:24;98034.72;;;32.41;44.86
53719;BME280;39616;48.872;9.390;2023-06-22T12:26:54;98024.38;;;32.38;44.73
53719;BME280;39616;48.872;9.390;2023-06-22T12:29:24;98031.91;;;32.41;44.92
53719;BME280;39616;48.872;9.390;2023-06-22T12:31:55;98023.25;;;32.36;45.22
53719;BME280;39616;48.872;9.390;2023-06-22T12:34:25;98022.13;;;32.20;46.37
53719;BME280;39616;48.872;9.390;2023-06-22T12:36:55;98023.56;;;31.99;48.20
53719;BME280;39616;48.872;9.390;2023-06-22T12:39:25;98022.72;;;31.61;49.05
53719;BME280;39616;48.872;9.390;2023-06-22T12:41:56;98024.56;;;31.38;50.58
53719;BME280;39616;48.872;9.390;2023-06-22T12:44:26;98012.59;;;31.21;50.05
53719;BME280;39616;48.872;9.390;2023-06-22T12:46:56;98014.13;;;31.10;49.99
53719;BME280;39616;48.872;9.390;2023-06-22T12:49:27;98021.56;;;31.00;50.20
53719;BME280;39616;48.872;9.390;2023-06-22T12:51:57;98028.34;;;30.70;51.84
53719;BME280;39616;48.872;9.390;2023-06-22T12:54:27;98043.22;;;30.50;51.53
53719;BME280;39616;48.872;9.390;2023-06-22T12:56:59;98049.34;;;30.45;52.86
53719;BME280;39616;48.872;9.390;2023-06-22T12:59:30;98055.09;;;30.38;52.79
53719;BME280;39616;48.872;9.390;2023-06-22T13:02:00;98068.84;;;30.49;55.35
53719;BME280;39616;48.872;9.390;2023-06-22T13:04:30;98081.22;;;30.48;54.74
53719;BME280;39616;48.872;9.390;2023-06-22T13:07:00;98082.19;;;30.41;53.99
53719;BME280;39616;48.872;9.390;2023-06-22T13:09:31;98074.53;;;30.45;53.98
53719;BME280;39616;48.872;9.390;2023-06-22T13:12:01;98069.09;;;30.54;53.32
53719;BME280;39616;48.872;9.390;2023-06-22T13:14:32;98061.41;;;30.59;52.35
53719;BME280;39616;48.872;9.390;2023-06-22T13:17:02;98053.09;;;30.55;53.19
53719;BME280;39616;48.872;9.390;2023-06-22T13:19:33;98047.22;;;30.66;52.97